Time;durP1;ratioP1;P1;durP2;ratioP2;P2;SDS_P1;SDS_P2;PMS_P1;PMS_P2;Temp;Humidity;BMP_temperature;BMP_pressure;BME280_temperature;BME280_humidity;BME280_pressure;Samples;Min_cycle;Max_cycle;Signal;HPM_P1;HPM_P2
2023/02/26 00:00:29;;;;;;;11.80;5.90;;;15.00;76.00;;;;;;4918199;29;20032;-73
2023/02/26 00:03:08;;;;;;;16.58;9.38;;;15.00;76.40;;;;;;4916780;29;20044;-74
2023/02/26 00:05:36;;;;;;;20.83;12.55;;;14.90;77.40;;;;;;4917027;29;20134;-72
2023/02/26 00:08:04;;;;;;;14.60;6.57;;;14.90;77.30;;;;;;4913754;29;20071;-72
2023/02/26 00:10:32;;;;;;;15.20;6.13;;;14.90;77.60;;;;;;4916860;29;20047;-73
2023/02/26 00:12:59;;;;;;;11.05;6.10;;;14.90;76.90;;;;;;4949391;29;20043;-73
2023/02/26 00:15:30;;;;;;;12.85;5.50;;;14.90;77.30;;;;;;4912812;29;20044;-71
2023/02/26 00:18:06;;;;;;;7.93;5.45;;;14.90;77.30;;;;;;4902100;29;20143;-72
2023/02/26 00:20:35;;;;;;;8.88;5.57;;;14.80;77.90;;;;;;4920352;29;20051;-75
2023/02/26 00:23:04;;;;;;;10.00;5.80;;;14.80;76.40;;;;;;4932238;29;20491;-75
2023/02/26 00:25:31;;;;;;;13.23;5.95;;;14.80;76.10;;;;;;4921052;29;20046;-72
2023/02/26 00:28:01;;;;;;;12.02;6.03;;;14.80;76.40;;;;;;4918295;29;20077;-72
2023/02/26 00:30:32;;;;;;;10.75;6.38;;;14.80;76.60;;;;;;4923090;29;20051;-72
2023/02/26 00:33:02;;;;;;;13.33;5.50;;;14.80;76.80;;;;;;4913294;29;20054;-73
2023/02/26 00:35:34;;;;;;;11.38;5.30;;;14.70;77.00;;;;;;4910592;29;20698;-72
2023/02/26 00:38:07;;;;;;;12.02;6.28;;;14.80;76.00;;;;;;4928457;29;20063;-73
2023/02/26 00:40:47;;;;;;;13.63;5.78;;;14.80;76.00;;;;;;4943096;29;20063;-71
2023/02/26 00:43:23;;;;;;;16.73;5.70;;;14.70;77.50;;;;;;4953987;29;20050;-70
2023/02/26 00:46:05;;;;;;;11.70;6.03;;;14.60;78.00;;;;;;4917464;29;20484;-73
2023/02/26 00:48:39;;;;;;;12.18;5.97;;;14.50;78.80;;;;;;4949357;29;20048;-73
2023/02/26 00:51:15;;;;;;;15.23;7.15;;;14.50;79.70;;;;;;4892498;29;20051;-75
2023/02/26 00:54:10;;;;;;;12.85;5.97;;;14.50;79.40;;;;;;4918591;29;20058;-72
2023/02/26 00:56:37;;;;;;;12.70;5.80;;;14.50;79.20;;;;;;4903527;29;20059;-72
2023/02/26 00:59:04;;;;;;;14.23;4.82;;;14.40;79.40;;;;;;4938229;29;20035;-71
2023/02/26 01:01:36;;;;;;;18.00;4.38;;;14.90;72.00;;;;;;4911395;29;20131;-69
2023/02/26 01:04:04;;;;;;;12.18;4.60;;;16.40;63.50;;;;;;4893668;29;20047;-74
2023/02/26 01:06:34;;;;;;;7.50;3.58;;;16.30;64.20;;;;;;4929258;29;20486;-71
2023/02/26 01:09:10;;;;;;;10.13;3.33;;;16.60;62.40;;;;;;4942507;29;20086;-70
2023/02/26 01:11:37;;;;;;;10.80;3.90;;;16.70;61.90;;;;;;4893340;29;20123;-70
2023/02/26 01:14:05;;;;;;;11.35;3.30;;;16.60;62.00;;;;;;4913608;29;20138;-72
2023/02/26 01:16:41;;;;;;;8.32;3.22;;;16.60;61.90;;;;;;4949698;29;20067;-74
2023/02/26 01:19:31;;;;;;;10.48;3.65;;;16.50;62.10;;;;;;4918722;29;20044;-73
2023/02/26 01:22:02;;;;;;;;;;;16.30;62.70;;;;;;4925453;29;20505;-70
2023/02/26 01:24:33;;;;;;;13.32;6.05;;;16.10;65.60;;;;;;4908208;29;19922;-71
2023/02/26 01:27:05;;;;;;;12.18;5.40;;;15.70;71.80;;;;;;4912512;29;20055;-73
2023/02/26 01:29:33;;;;;;;10.50;6.15;;;15.10;76.00;;;;;;4920149;29;20605;-72
2023/02/26 01:32:47;;;;;;;12.85;9.00;;;14.80;78.10;;;;;;4911852;29;20054;-72
2023/02/26 01:35:45;;;;;;;11.95;6.15;;;14.60;79.50;;;;;;4919755;29;20050;-72
2023/02/26 01:38:27;;;;;;;11.40;6.18;;;14.60;79.90;;;;;;4904268;29;20051;-73
2023/02/26 01:41:12;;;;;;;12.23;5.50;;;14.40;81.20;;;;;;4904211;29;20437;-72
2023/02/26 01:44:17;;;;;;;15.90;6.57;;;14.40;81.50;;;;;;4890628;29;20655;-71
2023/02/26 01:47:03;;;;;;;10.27;6.28;;;14.40;82.30;;;;;;4919329;29;20567;-75
2023/02/26 01:49:33;;;;;;;11.68;5.95;;;14.20;83.40;;;;;;4903620;29;20483;-72
2023/02/26 01:52:06;;;;;;;10.07;6.63;;;14.10;84.10;;;;;;4897214;29;20054;-72
2023/02/26 01:54:38;;;;;;;12.27;6.85;;;14.10;84.70;;;;;;4903754;29;20059;-75
2023/02/26 01:57:18;;;;;;;9.55;6.35;;;14.10;84.90;;;;;;4935956;29;20098;-72
2023/02/26 01:59:48;;;;;;;14.85;6.32;;;13.90;85.60;;;;;;4922185;29;20051;-72
2023/02/26 02:02:22;;;;;;;9.73;6.10;;;13.80;86.50;;;;;;4953342;29;20035;-74
2023/02/26 02:04:50;;;;;;;13.15;5.60;;;13.80;85.70;;;;;;4954065;29;20403;-71
2023/02/26 02:07:21;;;;;;;12.00;5.82;;;13.90;85.60;;;;;;4953454;29;20538;-71
2023/02/26 02:09:49;;;;;;;20.02;8.35;;;13.90;85.10;;;;;;4908527;29;20059;-73
2023/02/26 02:12:41;;;;;;;10.65;5.80;;;14.00;84.10;;;;;;4922894;29;20050;-71
2023/02/26 02:15:24;;;;;;;13.68;6.20;;;14.10;83.40;;;;;;4890182;29;20047;-72
2023/02/26 02:18:00;;;;;;;14.63;6.50;;;14.00;82.40;;;;;;4946970;29;20057;-73
2023/02/26 02:20:48;;;;;;;10.18;6.07;;;14.10;82.30;;;;;;4923782;29;20071;-71
2023/02/26 02:23:36;;;;;;;12.35;6.00;;;14.10;82.50;;;;;;4924872;23;20051;-74
2023/02/26 02:26:28;;;;;;;10.63;7.15;;;14.10;81.90;;;;;;4927496;29;20055;-72
2023/02/26 02:29:17;;;;;;;12.65;5.60;;;14.20;81.80;;;;;;4934309;29;20071;-71
2023/02/26 02:31:52;;;;;;;12.20;5.53;;;14.20;81.10;;;;;;4907430;29;20396;-75
2023/02/26 02:34:38;;;;;;;11.57;5.60;;;14.30;80.10;;;;;;4933572;29;20051;-71
2023/02/26 02:37:24;;;;;;;11.25;6.10;;;14.20;80.70;;;;;;4917719;29;20051;-73
2023/02/26 02:40:03;;;;;;;10.32;5.70;;;14.20;81.00;;;;;;4907023;29;20059;-72
2023/02/26 02:42:34;;;;;;;11.98;5.28;;;13.90;82.80;;;;;;4920809;23;20059;-72
2023/02/26 02:45:13;;;;;;;15.77;6.40;;;13.90;82.50;;;;;;4915701;29;20487;-73
2023/02/26 02:47:46;;;;;;;9.52;6.22;;;13.80;83.00;;;;;;4917567;29;20532;-74
2023/02/26 02:50:44;;;;;;;15.60;6.10;;;13.80;83.20;;;;;;4917372;29;20059;-72
2023/02/26 02:53:26;;;;;;;17.55;5.93;;;13.70;84.20;;;;;;4901497;29;20070;-72
2023/02/26 02:56:00;;;;;;;11.63;6.10;;;13.80;83.40;;;;;;4918240;29;20411;-71
2023/02/26 02:58:34;;;;;;;10.77;5.70;;;13.80;83.80;;;;;;4897929;29;20508;-71
2023/02/26 03:01:10;;;;;;;9.63;5.65;;;13.80;84.00;;;;;;4921957;29;20052;-72
2023/02/26 03:03:43;;;;;;;11.05;5.80;;;13.80;84.10;;;;;;4917187;29;20043;-71
2023/02/26 03:06:14;;;;;;;13.02;5.63;;;13.70;83.80;;;;;;4917311;29;20063;-71
2023/02/26 03:08:43;;;;;;;8.85;6.00;;;13.70;84.50;;;;;;4920495;23;20060;-72
2023/02/26 03:11:17;;;;;;;9.07;5.45;;;13.60;85.20;;;;;;4925600;29;20045;-71
2023/02/26 03:13:46;;;;;;;9.88;5.25;;;13.60;85.00;;;;;;4912495;29;20062;-70
2023/02/26 03:16:46;;;;;;;12.00;6.03;;;13.60;85.50;;;;;;4910591;29;20143;-70
2023/02/26 03:19:39;;;;;;;12.23;6.60;;;13.60;85.20;;;;;;4917264;29;20052;-71
2023/02/26 03:22:16;;;;;;;13.20;6.25;;;13.50;85.50;;;;;;4919455;29;20056;-70
2023/02/26 03:25:10;;;;;;;9.80;5.85;;;13.50;86.00;;;;;;4932900;29;20115;-74
2023/02/26 03:27:56;;;;;;;11.63;5.85;;;13.50;85.90;;;;;;4916154;29;20040;-72
2023/02/26 03:30:38;;;;;;;11.85;5.40;;;13.40;86.70;;;;;;4908623;29;20686;-74
2023/02/26 03:33:18;;;;;;;11.27;5.40;;;13.60;84.10;;;;;;4916906;29;20515;-74
2023/02/26 03:36:11;;;;;;;7.75;5.25;;;13.80;83.60;;;;;;4930332;29;20061;-71
2023/02/26 03:38:54;;;;;;;11.35;5.50;;;13.80;82.90;;;;;;4917250;29;20141;-72
2023/02/26 03:41:36;;;;;;;9.32;6.10;;;13.80;83.10;;;;;;4920946;29;20046;-73
2023/02/26 03:44:31;;;;;;;14.05;5.72;;;13.80;84.70;;;;;;4926079;23;20213;-72
2023/02/26 03:47:07;;;;;;;8.60;5.43;;;13.70;85.30;;;;;;4933260;29;20054;-72
2023/02/26 03:49:55;;;;;;;11.27;5.72;;;13.60;85.90;;;;;;4889962;29;20503;-75
2023/02/26 03:52:33;;;;;;;17.42;6.30;;;13.40;87.20;;;;;;4933664;29;20151;-72
2023/02/26 03:55:16;;;;;;;15.45;6.18;;;13.40;87.60;;;;;;4902410;29;20559;-72
2023/02/26 03:57:45;;;;;;;14.77;6.10;;;13.50;87.40;;;;;;4901007;29;20054;-72
2023/02/26 04:00:13;;;;;;;11.93;5.95;;;13.50;87.70;;;;;;4900817;29;20216;-71
2023/02/26 04:02:56;;;;;;;12.95;6.00;;;13.60;87.60;;;;;;4901791;29;20392;-70
2023/02/26 04:05:32;;;;;;;11.40;5.68;;;13.40;88.40;;;;;;4900915;29;20204;-74
2023/02/26 04:08:02;;;;;;;11.30;6.10;;;13.20;89.40;;;;;;4932872;29;20396;-71
2023/02/26 04:10:55;;;;;;;14.20;6.00;;;13.10;90.00;;;;;;4901298;29;20047;-74
2023/02/26 04:13:23;;;;;;;9.48;5.72;;;13.10;90.20;;;;;;4916339;29;20112;-71
2023/02/26 04:15:59;;;;;;;14.30;6.15;;;13.20;90.30;;;;;;4910668;29;20055;-72
2023/02/26 04:18:27;;;;;;;16.00;6.65;;;13.20;90.50;;;;;;4900815;29;20130;-74
2023/02/26 04:20:57;;;;;;;11.05;5.80;;;13.10;90.70;;;;;;4932918;29;20403;-72
2023/02/26 04:23:26;;;;;;;11.38;6.75;;;13.10;90.80;;;;;;4901069;29;20506;-71
2023/02/26 04:25:59;;;;;;;11.95;6.00;;;13.00;91.10;;;;;;4901201;29;20062;-71
2023/02/26 04:28:26;;;;;;;9.60;6.50;;;12.90;91.30;;;;;;4899636;29;20055;-72
2023/02/26 04:30:54;;;;;;;11.25;6.32;;;12.90;91.60;;;;;;4914360;29;20051;-71
2023/02/26 04:33:22;;;;;;;10.02;6.15;;;12.80;91.70;;;;;;4900662;29;20510;-74
2023/02/26 04:35:49;;;;;;;13.98;7.57;;;12.90;91.80;;;;;;4916551;29;20070;-74
2023/02/26 04:38:20;;;;;;;12.50;6.07;;;13.00;91.80;;;;;;4913175;29;20040;-72
2023/02/26 04:40:57;;;;;;;17.85;6.75;;;13.10;92.00;;;;;;4918946;29;20051;-70
2023/02/26 04:43:24;;;;;;;12.10;6.10;;;13.10;92.20;;;;;;4900180;29;20060;-72
2023/02/26 04:45:59;;;;;;;13.88;6.50;;;13.00;92.30;;;;;;4897877;29;20075;-71
2023/02/26 04:48:30;;;;;;;13.10;6.75;;;12.90;92.60;;;;;;4922383;23;20079;-71
2023/02/26 04:50:57;;;;;;;10.73;6.78;;;12.90;93.10;;;;;;4919891;29;20400;-70
2023/02/26 04:53:25;;;;;;;15.00;6.82;;;12.80;93.30;;;;;;4919990;29;20043;-71
2023/02/26 04:55:52;;;;;;;12.82;6.82;;;12.70;93.50;;;;;;4916642;29;20044;-74
2023/02/26 04:58:19;;;;;;;12.48;6.70;;;12.60;94.00;;;;;;4944074;29;20047;-73
2023/02/26 05:00:56;;;;;;;12.98;6.82;;;12.70;93.90;;;;;;4920337;29;20078;-71
2023/02/26 05:03:23;;;;;;;11.40;7.78;;;12.70;94.10;;;;;;4919489;29;20055;-74
2023/02/26 05:05:56;;;;;;;9.73;6.05;;;12.50;94.50;;;;;;4926524;29;20049;-72
2023/02/26 05:08:27;;;;;;;12.68;7.50;;;12.40;95.10;;;;;;4922350;29;20121;-70
2023/02/26 05:10:57;;;;;;;14.48;7.43;;;12.30;95.40;;;;;;4923281;29;20458;-69
2023/02/26 05:13:24;;;;;;;13.88;6.95;;;12.40;95.70;;;;;;4938262;29;20054;-69
2023/02/26 05:15:54;;;;;;;13.90;6.50;;;12.30;95.70;;;;;;4919803;29;20056;-71
2023/02/26 05:18:22;;;;;;;12.15;6.95;;;12.20;96.30;;;;;;4931981;29;20436;-71
2023/02/26 05:20:56;;;;;;;11.85;7.07;;;12.10;96.90;;;;;;4935082;29;20078;-72
2023/02/26 05:23:27;;;;;;;15.23;7.25;;;12.10;97.00;;;;;;4921754;29;20062;-70
2023/02/26 05:25:56;;;;;;;12.77;7.20;;;12.10;97.00;;;;;;4922897;29;20435;-74
2023/02/26 05:28:25;;;;;;;16.90;7.40;;;12.20;96.90;;;;;;4922686;29;20082;-72
2023/02/26 05:30:54;;;;;;;12.70;6.90;;;12.40;96.90;;;;;;4914494;29;20043;-73
2023/02/26 05:33:21;;;;;;;15.38;7.30;;;12.30;96.80;;;;;;4947573;29;20470;-74
2023/02/26 05:35:51;;;;;;;13.75;6.97;;;12.30;96.90;;;;;;4933577;29;20062;-72
2023/02/26 05:38:19;;;;;;;13.02;6.55;;;12.20;97.60;;;;;;4922296;29;20058;-72
2023/02/26 05:40:46;;;;;;;13.10;6.88;;;12.10;97.80;;;;;;4938254;29;20058;-74
2023/02/26 05:43:13;;;;;;;12.48;7.45;;;12.10;98.10;;;;;;4922167;29;20048;-72
2023/02/26 05:45:41;;;;;;;13.82;6.80;;;12.10;98.50;;;;;;4918489;29;20470;-72
2023/02/26 05:48:09;;;;;;;11.82;7.03;;;12.10;98.60;;;;;;4948397;29;20051;-72
2023/02/26 05:50:43;;;;;;;14.95;6.75;;;12.10;98.70;;;;;;4920087;29;20054;-71
2023/02/26 05:53:13;;;;;;;15.35;7.25;;;12.10;98.70;;;;;;4922435;29;20086;-70
2023/02/26 05:55:41;;;;;;;19.02;7.82;;;11.90;99.20;;;;;;4921346;29;21255;-72
2023/02/26 05:58:17;;;;;;;17.67;7.18;;;11.70;99.40;;;;;;4931641;29;20074;-72
2023/02/26 06:00:44;;;;;;;15.70;7.55;;;11.90;99.10;;;;;;4921804;29;20055;-72
2023/02/26 06:03:15;;;;;;;14.38;6.95;;;12.00;99.30;;;;;;4922665;29;20051;-71
2023/02/26 06:05:42;;;;;;;14.75;7.97;;;11.90;99.80;;;;;;4921956;29;20051;-74
2023/02/26 06:08:14;;;;;;;15.95;7.70;;;12.00;99.50;;;;;;4937820;29;20040;-72
2023/02/26 06:10:43;;;;;;;13.43;7.00;;;11.90;99.30;;;;;;4912365;29;20503;-72
2023/02/26 06:13:11;;;;;;;16.73;8.18;;;12.10;99.30;;;;;;4920729;29;20062;-71
2023/02/26 06:15:38;;;;;;;17.05;7.80;;;12.20;98.90;;;;;;4932871;29;20399;-72
2023/02/26 06:18:10;;;;;;;22.45;7.88;;;12.10;98.90;;;;;;4936732;29;20510;-71
2023/02/26 06:20:41;;;;;;;20.35;7.25;;;12.30;98.30;;;;;;4940110;23;20142;-72
2023/02/26 06:23:13;;;;;;;16.80;6.88;;;12.60;97.30;;;;;;4938115;29;20047;-69
2023/02/26 06:25:41;;;;;;;13.40;7.85;;;12.60;97.20;;;;;;4934532;29;20047;-74
2023/02/26 06:28:08;;;;;;;15.55;7.45;;;12.60;97.00;;;;;;4952027;29;20588;-72
2023/02/26 06:30:37;;;;;;;11.70;6.95;;;12.80;96.60;;;;;;4937515;29;20452;-71
2023/02/26 06:33:14;;;;;;;16.15;7.47;;;12.80;96.50;;;;;;4953072;29;20071;-73
2023/02/26 06:35:42;;;;;;;11.20;7.28;;;12.80;96.50;;;;;;4938024;29;20062;-72
2023/02/26 06:38:12;;;;;;;13.77;7.25;;;12.90;96.50;;;;;;4942565;28;20060;-70
2023/02/26 06:40:43;;;;;;;13.18;7.05;;;13.00;96.30;;;;;;4935301;29;20102;-72
2023/02/26 06:43:10;;;;;;;14.98;6.53;;;13.10;96.20;;;;;;4937221;29;20515;-74
2023/02/26 06:45:37;;;;;;;16.10;6.45;;;13.30;95.80;;;;;;4935075;29;20043;-73
2023/02/26 06:48:05;;;;;;;9.57;6.07;;;13.40;95.90;;;;;;4945976;29;20039;-74
2023/02/26 06:50:38;;;;;;;14.55;6.45;;;13.40;95.70;;;;;;4952367;29;20054;-72
2023/02/26 06:53:08;;;;;;;13.05;6.82;;;13.40;95.60;;;;;;4937383;29;20451;-72
2023/02/26 06:55:47;;;;;;;14.88;7.80;;;13.60;95.20;;;;;;4936551;29;20057;-71
2023/02/26 06:58:21;;;;;;;16.70;6.15;;;13.70;94.90;;;;;;4928564;29;20043;-74
2023/02/26 07:00:48;;;;;;;10.00;6.32;;;13.80;94.10;;;;;;4950790;29;20050;-77
2023/02/26 07:03:18;;;;;;;13.52;6.13;;;13.80;93.90;;;;;;4953682;29;20479;-72
2023/02/26 07:05:49;;;;;;;15.45;5.93;;;13.90;93.50;;;;;;4926230;29;20047;-76
2023/02/26 07:08:16;;;;;;;15.15;6.18;;;14.00;93.00;;;;;;4952958;29;20054;-76
2023/02/26 07:10:46;;;;;;;14.05;6.03;;;14.00;92.90;;;;;;4952121;29;20039;-72
2023/02/26 07:13:17;;;;;;;16.13;5.80;;;14.10;92.20;;;;;;4952497;29;20130;-75
2023/02/26 07:15:47;;;;;;;14.10;5.40;;;14.10;91.60;;;;;;4952142;29;20050;-72
2023/02/26 07:18:14;;;;;;;13.10;5.30;;;14.20;91.40;;;;;;4930069;29;20074;-72
2023/02/26 07:20:42;;;;;;;19.45;5.85;;;14.30;91.20;;;;;;4932816;29;20048;-76
2023/02/26 07:23:10;;;;;;;11.77;5.20;;;14.40;90.60;;;;;;4948062;28;20483;-72
2023/02/26 07:25:38;;;;;;;20.27;6.95;;;14.50;90.30;;;;;;4930017;29;20058;-75
2023/02/26 07:28:05;;;;;;;15.23;5.85;;;14.50;90.30;;;;;;4947664;29;20489;-71
2023/02/26 07:30:35;;;;;;;14.73;5.55;;;14.50;90.00;;;;;;4945116;29;20044;-73
2023/02/26 07:33:05;;;;;;;16.88;7.18;;;14.50;89.90;;;;;;4921682;29;20142;-72
2023/02/26 07:35:32;;;;;;;14.82;6.32;;;14.60;88.70;;;;;;4930099;29;20063;-72
2023/02/26 07:37:59;;;;;;;14.77;4.75;;;14.70;88.20;;;;;;4936913;29;20054;-76
2023/02/26 07:40:27;;;;;;;14.13;5.15;;;14.80;86.70;;;;;;4948140;29;20130;-74
2023/02/26 07:42:54;;;;;;;20.10;5.70;;;14.80;86.30;;;;;;4951929;29;20910;-72
2023/02/26 07:45:33;;;;;;;13.77;5.80;;;14.90;86.40;;;;;;4935985;29;20506;-72
2023/02/26 07:48:00;;;;;;;18.23;6.00;;;15.00;85.60;;;;;;4944726;29;20134;-75
2023/02/26 07:50:35;;;;;;;14.15;5.47;;;15.10;84.00;;;;;;4947407;29;20051;-72
2023/02/26 07:53:04;;;;;;;9.85;4.95;;;15.20;83.20;;;;;;4921404;29;20449;-70
2023/02/26 07:55:32;;;;;;;10.27;5.28;;;15.30;83.40;;;;;;4929109;29;20058;-72
2023/02/26 07:58:02;;;;;;;18.13;5.55;;;15.30;83.80;;;;;;4933708;29;20055;-71
2023/02/26 08:00:33;;;;;;;19.80;6.18;;;15.40;84.70;;;;;;4932033;29;20627;-74
2023/02/26 08:03:10;;;;;;;13.82;4.85;;;15.40;84.80;;;;;;4952729;29;20043;-71
2023/02/26 08:05:47;;;;;;;14.88;6.25;;;15.50;84.70;;;;;;4935408;29;20046;-71
2023/02/26 08:08:23;;;;;;;15.57;5.35;;;15.60;84.60;;;;;;4937566;29;20320;-74
2023/02/26 08:10:51;;;;;;;18.83;6.43;;;15.60;84.60;;;;;;4951524;29;20066;-75
2023/02/26 08:13:26;;;;;;;17.98;5.13;;;15.70;84.60;;;;;;4933795;29;20059;-71
2023/02/26 08:15:54;;;;;;;16.48;5.63;;;15.70;84.00;;;;;;4926769;29;20050;-70
2023/02/26 08:18:21;;;;;;;16.73;5.25;;;15.80;83.70;;;;;;4936465;29;20105;-69
2023/02/26 08:23:38;;;;;;;33.53;15.60;;;15.90;85.40;;;;;;4092127;26;20043;-74
2023/02/26 08:26:08;;;;;;;15.43;6.32;;;16.10;84.90;;;;;;4951828;29;20047;-72
2023/02/26 08:28:36;;;;;;;22.55;7.30;;;16.10;81.50;;;;;;4918475;29;20075;-72
2023/02/26 08:31:04;;;;;;;20.13;5.78;;;16.20;81.50;;;;;;4918963;29;20069;-69
2023/02/26 08:33:34;;;;;;;14.60;5.03;;;16.20;81.20;;;;;;4916108;29;20130;-71
2023/02/26 08:36:05;;;;;;;15.45;5.05;;;16.20;80.80;;;;;;4948952;28;20417;-69
2023/02/26 08:38:32;;;;;;;17.48;5.07;;;16.30;80.90;;;;;;4935688;29;20058;-72
2023/02/26 08:40:59;;;;;;;11.40;5.40;;;16.40;80.20;;;;;;4914223;29;20066;-73
2023/02/26 08:43:28;;;;;;;15.02;5.22;;;16.40;80.10;;;;;;4918421;29;20047;-71
2023/02/26 08:45:58;;;;;;;;;;;16.50;80.10;;;;;;4928192;29;20070;-70
2023/02/26 08:48:25;;;;;;;18.88;6.50;;;16.60;79.80;;;;;;4917688;29;20002;-70
2023/02/26 08:50:56;;;;;;;14.75;5.85;;;16.70;79.40;;;;;;4918306;29;20487;-70
2023/02/26 08:53:23;;;;;;;20.13;5.40;;;16.90;78.60;;;;;;4921665;29;20035;-73
2023/02/26 08:55:52;;;;;;;23.13;6.15;;;16.90;78.90;;;;;;4935659;29;20054;-72
2023/02/26 08:58:20;;;;;;;16.30;5.40;;;17.00;78.90;;;;;;4917643;29;20051;-73
2023/02/26 09:00:48;;;;;;;20.73;5.50;;;17.00;79.40;;;;;;4935536;29;20047;-70
2023/02/26 09:03:15;;;;;;;19.80;5.15;;;17.00;79.50;;;;;;4935005;23;20130;-71
2023/02/26 09:05:45;;;;;;;23.33;5.97;;;17.10;79.40;;;;;;4929079;29;20089;-70
2023/02/26 09:08:14;;;;;;;23.95;10.65;;;17.20;79.30;;;;;;4926906;29;20044;-75
2023/02/26 09:10:42;;;;;;;25.80;8.82;;;17.40;79.10;;;;;;4934406;29;20160;-72
2023/02/26 09:13:12;;;;;;;24.65;5.30;;;17.40;78.90;;;;;;4919608;29;20051;-72
2023/02/26 09:15:40;;;;;;;15.95;4.75;;;17.50;78.80;;;;;;4930543;29;20059;-72
2023/02/26 09:18:14;;;;;;;23.80;4.78;;;17.70;79.40;;;;;;4908889;29;20118;-74
2023/02/26 09:20:54;;;;;;;16.95;5.22;;;17.80;78.20;;;;;;4914868;29;20048;-73
2023/02/26 09:23:33;;;;;;;14.98;5.07;;;17.80;78.00;;;;;;4914540;29;20685;-73
2023/02/26 09:26:00;;;;;;;14.75;4.78;;;17.80;77.70;;;;;;4921434;29;20047;-73
2023/02/26 09:28:31;;;;;;;15.93;4.57;;;17.90;78.40;;;;;;4936000;23;20452;-72
2023/02/26 09:30:59;;;;;;;12.77;5.18;;;17.90;75.80;;;;;;4928284;29;20045;-73
2023/02/26 09:33:32;;;;;;;16.85;5.28;;;17.90;76.30;;;;;;4945093;29;20050;-73
2023/02/26 09:36:02;;;;;;;14.55;4.53;;;18.20;75.70;;;;;;4966001;28;20058;-73
2023/02/26 09:38:35;;;;;;;18.87;6.73;;;18.20;75.30;;;;;;4918547;29;20114;-73
2023/02/26 09:41:18;;;;;;;14.75;5.65;;;18.20;74.90;;;;;;4945726;29;20412;-72
2023/02/26 09:44:25;;;;;;;22.23;5.32;;;18.20;74.40;;;;;;4944508;29;20066;-73
2023/02/26 09:47:38;;;;;;;20.73;5.78;;;18.20;74.40;;;;;;4929059;29;20511;-72
2023/02/26 09:50:50;;;;;;;15.20;6.05;;;18.40;74.20;;;;;;4948562;29;20051;-72
2023/02/26 09:53:40;;;;;;;15.45;5.55;;;18.40;73.40;;;;;;4911352;29;20051;-74
2023/02/26 09:56:15;;;;;;;14.38;5.57;;;18.30;72.90;;;;;;4932722;29;21643;-74
2023/02/26 09:58:44;;;;;;;13.10;5.32;;;18.10;72.70;;;;;;4929978;29;20058;-72
2023/02/26 10:01:15;;;;;;;16.63;5.78;;;18.20;73.50;;;;;;4945455;29;20058;-72
2023/02/26 10:03:51;;;;;;;;;;;18.20;74.10;;;;;;4929780;29;20399;-74
2023/02/26 10:06:54;;;;;;;14.57;5.53;;;18.20;73.60;;;;;;4943757;29;19974;-74
2023/02/26 10:09:54;;;;;;;17.13;4.97;;;18.00;74.10;;;;;;4913283;29;20048;-72
2023/02/26 10:12:35;;;;;;;20.10;6.18;;;17.80;74.80;;;;;;4945191;28;20403;-70
2023/02/26 10:15:12;;;;;;;18.75;5.68;;;17.60;75.90;;;;;;4934409;23;20055;-72
2023/02/26 10:17:53;;;;;;;15.52;6.00;;;17.60;76.60;;;;;;4962547;28;20047;-74
2023/02/26 10:20:38;;;;;;;15.68;6.45;;;17.60;77.20;;;;;;4945467;28;20078;-72
2023/02/26 10:23:18;;;;;;;18.77;6.32;;;17.70;77.80;;;;;;4946347;29;20047;-73
2023/02/26 10:25:57;;;;;;;20.30;5.40;;;17.60;78.50;;;;;;4964404;28;20062;-74
2023/02/26 10:28:50;;;;;;;14.88;5.55;;;17.80;78.70;;;;;;4917344;29;20047;-72
2023/02/26 10:31:28;;;;;;;23.65;12.82;;;17.70;78.30;;;;;;4944716;29;20051;-72
2023/02/26 10:34:19;;;;;;;25.75;10.75;;;17.80;78.50;;;;;;4922974;29;20047;-71
2023/02/26 10:37:14;;;;;;;21.40;6.97;;;17.50;80.10;;;;;;4934054;29;20054;-74
2023/02/26 10:39:52;;;;;;;18.33;6.45;;;17.20;81.00;;;;;;4933661;29;22425;-74
2023/02/26 10:42:36;;;;;;;20.95;10.25;;;17.20;82.20;;;;;;4937267;29;20095;-74
2023/02/26 10:45:35;;;;;;;45.90;21.48;;;17.00;82.40;;;;;;4935605;28;20039;-71
2023/02/26 10:48:25;;;;;;;20.50;6.63;;;17.10;83.00;;;;;;4937633;28;20051;-73
2023/02/26 10:50:59;;;;;;;13.32;5.47;;;16.80;84.10;;;;;;4917043;29;20043;-72
2023/02/26 10:53:30;;;;;;;25.52;5.85;;;16.70;84.90;;;;;;4915138;29;20059;-71
2023/02/26 10:56:26;;;;;;;14.73;5.90;;;16.70;85.50;;;;;;4936889;29;20038;-71
2023/02/26 10:58:54;;;;;;;11.65;6.05;;;16.70;86.40;;;;;;4916572;29;20063;-73
2023/02/26 11:01:24;;;;;;;16.33;7.57;;;16.60;87.00;;;;;;4924532;29;20406;-73
2023/02/26 11:04:01;;;;;;;19.60;6.22;;;16.70;87.50;;;;;;4960132;28;20094;-71
2023/02/26 11:06:37;;;;;;;17.25;6.15;;;16.60;88.10;;;;;;4941395;29;20039;-71
2023/02/26 11:09:18;;;;;;;13.43;5.72;;;16.60;88.00;;;;;;4919268;29;20095;-71
2023/02/26 11:12:11;;;;;;;16.65;7.13;;;16.60;88.30;;;;;;4941860;29;20613;-69
2023/02/26 11:14:41;;;;;;;12.35;6.07;;;17.00;87.60;;;;;;4957907;28;20416;-70
2023/02/26 11:17:30;;;;;;;19.02;5.72;;;16.90;89.30;;;;;;4928511;29;20488;-73
2023/02/26 11:20:33;;;;;;;12.70;6.63;;;16.90;89.60;;;;;;4946814;29;20035;-71
2023/02/26 11:23:06;;;;;;;21.40;6.93;;;16.80;90.20;;;;;;4942246;28;20048;-71
2023/02/26 11:25:34;;;;;;;17.52;7.18;;;16.90;90.30;;;;;;4919556;29;20058;-73
2023/02/26 11:28:17;;;;;;;15.05;6.97;;;16.90;90.50;;;;;;4961129;28;20043;-71
2023/02/26 11:30:48;;;;;;;14.38;6.00;;;16.80;90.60;;;;;;4948956;29;20044;-72
2023/02/26 11:33:23;;;;;;;17.13;6.05;;;16.70;91.20;;;;;;4939100;29;20055;-74
2023/02/26 11:35:51;;;;;;;18.42;5.90;;;16.90;90.70;;;;;;4948280;29;20135;-72
2023/02/26 11:38:24;;;;;;;12.15;5.53;;;16.80;90.90;;;;;;4935381;29;20065;-72
2023/02/26 11:40:55;;;;;;;26.45;7.90;;;16.80;91.00;;;;;;4940753;29;20066;-73
2023/02/26 11:43:27;;;;;;;51.10;27.02;;;16.90;90.80;;;;;;4941814;29;20098;-71
2023/02/26 11:45:58;;;;;;;30.30;16.80;;;17.10;90.50;;;;;;4920090;29;20668;-73
2023/02/26 11:48:39;;;;;;;14.45;6.13;;;17.30;90.70;;;;;;4947742;29;20115;-73
2023/02/26 11:51:15;;;;;;;15.95;5.82;;;17.20;90.70;;;;;;4927675;29;20577;-74
2023/02/26 11:53:51;;;;;;;26.17;6.50;;;17.10;90.60;;;;;;4927339;29;20440;-73
2023/02/26 11:56:30;;;;;;;19.33;5.55;;;17.10;90.60;;;;;;4940967;29;20036;-72
2023/02/26 11:59:04;;;;;;;16.23;5.72;;;17.00;90.60;;;;;;4922105;29;20053;-71
2023/02/26 12:01:32;;;;;;;16.08;6.60;;;17.00;91.00;;;;;;4936771;29;20043;-72
2023/02/26 12:04:01;;;;;;;19.23;6.15;;;17.00;91.20;;;;;;4933945;29;20036;-71
2023/02/26 12:06:29;;;;;;;12.80;6.32;;;17.00;91.00;;;;;;4942070;29;20043;-71
2023/02/26 12:08:56;;;;;;;16.75;6.43;;;17.00;91.10;;;;;;4936944;29;20047;-72
2023/02/26 12:11:42;;;;;;;16.75;5.95;;;17.00;91.10;;;;;;4940503;28;20039;-70
2023/02/26 12:14:47;;;;;;;16.55;5.75;;;17.10;90.90;;;;;;4935737;29;20138;-70
2023/02/26 12:17:37;;;;;;;11.77;5.45;;;17.00;90.80;;;;;;4951473;29;20043;-72
2023/02/26 12:20:18;;;;;;;14.20;6.10;;;17.10;90.90;;;;;;4944290;29;20058;-70
2023/02/26 12:23:10;;;;;;;19.13;6.40;;;17.10;90.80;;;;;;4941911;29;20293;-74
2023/02/26 12:26:06;;;;;;;18.75;5.80;;;17.10;90.90;;;;;;4928908;29;20054;-74
2023/02/26 12:28:52;;;;;;;13.35;5.47;;;17.10;90.60;;;;;;4920426;28;20464;-72
2023/02/26 12:31:25;;;;;;;17.08;6.30;;;17.30;90.40;;;;;;4938761;29;20044;-74
2023/02/26 12:34:31;;;;;;;13.65;6.15;;;17.40;90.70;;;;;;4936791;29;20051;-72
2023/02/26 12:37:07;;;;;;;23.17;5.75;;;17.10;90.50;;;;;;4952670;28;20059;-68
2023/02/26 12:40:35;;;;;;;13.45;5.93;;;17.10;90.70;;;;;;4946506;29;20046;-72
2023/02/26 12:43:28;;;;;;;20.88;5.75;;;17.20;90.70;;;;;;4907014;29;20055;-72
2023/02/26 12:46:01;;;;;;;14.82;5.60;;;17.00;90.70;;;;;;4910621;29;20507;-73
2023/02/26 12:48:56;;;;;;;19.02;6.60;;;16.90;90.90;;;;;;4911443;29;20055;-72
2023/02/26 12:52:00;;;;;;;18.40;7.25;;;17.00;90.70;;;;;;4940267;29;20062;-69
2023/02/26 12:55:08;;;;;;;15.68;7.15;;;17.10;90.90;;;;;;4937530;29;20559;-72
2023/02/26 12:58:01;;;;;;;20.55;7.40;;;17.10;90.50;;;;;;4941738;29;20393;-70
2023/02/26 13:00:41;;;;;;;16.70;6.13;;;16.90;90.70;;;;;;4941471;29;20032;-70
2023/02/26 13:03:39;;;;;;;17.33;8.60;;;16.80;91.60;;;;;;4955621;28;20047;-70
2023/02/26 13:06:37;;;;;;;20.65;6.00;;;16.70;91.30;;;;;;4924243;29;20608;-70
2023/02/26 13:09:19;;;;;;;18.73;6.10;;;16.70;91.50;;;;;;4944829;29;20522;-69
2023/02/26 13:11:56;;;;;;;17.92;6.13;;;16.60;92.00;;;;;;4956728;28;20083;-69
2023/02/26 13:14:37;;;;;;;17.30;5.78;;;16.60;92.30;;;;;;4936480;29;20696;-69
2023/02/26 13:17:42;;;;;;;17.48;6.18;;;16.50;92.40;;;;;;4923418;29;20032;-69
2023/02/26 13:20:23;;;;;;;14.40;6.15;;;16.50;92.40;;;;;;4941894;29;20039;-70
2023/02/26 13:23:15;;;;;;;12.90;6.95;;;16.50;92.60;;;;;;4943982;29;20047;-70
2023/02/26 13:25:55;;;;;;;17.95;5.95;;;16.50;92.70;;;;;;4939640;29;20051;-68